createdAt,value
2018-09-03T00:00:50.936Z,970.90
2018-09-03T00:01:50.985Z,970.91
2018-09-03T00:02:51.029Z,970.88
2018-09-03T00:03:51.080Z,970.86
2018-09-03T00:04:51.150Z,970.86
2018-09-03T00:05:51.176Z,970.86
2018-09-03T00:06:51.226Z,970.87
2018-09-03T00:07:51.291Z,970.87
2018-09-03T00:08:51.344Z,970.83
2018-09-03T00:09:51.372Z,970.83
2018-09-03T00:10:51.442Z,970.85
2018-09-03T00:11:51.469Z,970.87
2018-09-03T00:12:51.521Z,970.88
2018-09-03T00:13:51.589Z,970.92
2018-09-03T00:14:51.615Z,970.91
2018-09-03T00:15:51.658Z,970.94
2018-09-03T00:16:51.718Z,970.98
2018-09-03T00:17:51.764Z,970.98
2018-09-03T00:18:51.829Z,970.98
2018-09-03T00:19:51.857Z,971.02
2018-09-03T00:20:51.905Z,970.98
2018-09-03T00:21:51.963Z,971.02
2018-09-03T00:22:52.762Z,970.98
2018-09-03T00:23:52.075Z,970.99
2018-09-03T00:24:52.107Z,971.03
2018-09-03T00:25:52.163Z,971.08
2018-09-03T00:26:52.214Z,971.04
2018-09-03T00:27:52.254Z,971.05
2018-09-03T00:28:52.354Z,971.06
2018-09-03T00:29:52.345Z,971.08
2018-09-03T00:30:52.416Z,971.08
2018-09-03T00:31:52.449Z,971.02
2018-09-03T00:32:52.486Z,971.05
2018-09-03T00:33:52.542Z,971.05
2018-09-03T00:34:52.614Z,971.05
2018-09-03T00:35:52.660Z,971.05
2018-09-03T00:36:52.685Z,971.03
2018-09-03T00:37:52.736Z,971.10
2018-09-03T00:38:52.786Z,971.06
2018-09-03T00:39:52.824Z,971.10
2018-09-03T00:40:52.903Z,971.09
2018-09-03T00:41:52.952Z,971.11
2018-09-03T00:42:52.998Z,971.08
2018-09-03T00:43:53.022Z,971.14
2018-09-03T00:44:53.088Z,971.09
2018-09-03T00:45:53.125Z,971.16
2018-09-03T00:46:53.166Z,971.21
2018-09-03T00:47:53.244Z,971.18
2018-09-03T00:48:53.263Z,971.16
2018-09-03T00:49:53.325Z,971.14
2018-09-03T00:50:53.359Z,971.13
2018-09-03T00:51:53.409Z,971.13
2018-09-03T00:52:53.518Z,971.11
2018-09-03T00:53:53.509Z,971.09
2018-09-03T00:54:53.557Z,971.11
2018-09-03T00:55:53.615Z,971.12
2018-09-03T00:56:54.572Z,971.17
2018-09-03T00:57:53.721Z,971.19
2018-09-03T00:58:54.267Z,971.26
2018-09-03T00:59:53.797Z,971.25
2018-09-03T01:00:53.844Z,971.27
2018-09-03T01:01:53.893Z,971.28
2018-09-03T01:02:54.012Z,971.26
2018-09-03T01:03:54.066Z,971.25
2018-09-03T01:04:54.778Z,971.26
2018-09-03T01:05:54.084Z,971.26
2018-09-03T01:06:54.138Z,971.28
2018-09-03T01:07:54.185Z,971.28
2018-09-03T01:08:54.257Z,971.30
2018-09-03T01:09:54.305Z,971.27
2018-09-03T01:10:54.328Z,971.27
2018-09-03T01:11:54.380Z,971.29
2018-09-03T01:12:54.431Z,971.25
2018-09-03T01:13:54.477Z,971.28
2018-09-03T01:14:54.543Z,971.26
2018-09-03T01:15:54.596Z,971.22
2018-09-03T01:16:54.624Z,971.22
2018-09-03T01:17:54.712Z,971.26
2018-09-03T01:18:54.719Z,971.28
2018-09-03T01:19:54.799Z,971.29
2018-09-03T01:20:54.822Z,971.29
2018-09-03T01:21:54.865Z,971.31
2018-09-03T01:22:54.916Z,971.35
2018-09-03T01:23:56.770Z,971.34
2018-09-03T01:24:55.032Z,971.34
2018-09-03T01:25:55.080Z,971.29
2018-09-03T01:26:55.106Z,971.31
2018-09-03T01:27:55.154Z,971.29
2018-09-03T01:28:56.072Z,971.30
2018-09-03T01:29:55.272Z,971.29
2018-09-03T01:30:55.300Z,971.29
2018-09-03T01:31:55.347Z,971.30
2018-09-03T01:32:55.397Z,971.34
2018-09-03T01:33:55.445Z,971.34
2018-09-03T01:34:55.518Z,971.36
2018-09-03T01:35:55.542Z,971.35
2018-09-03T01:36:55.589Z,971.37
2018-09-03T01:37:55.640Z,971.39
2018-09-03T01:38:56.303Z,971.38
2018-09-03T01:39:55.762Z,971.37
2018-09-03T01:40:55.795Z,971.39
2018-09-03T01:41:55.865Z,971.33
2018-09-03T01:42:55.887Z,971.37
2018-09-03T01:43:55.931Z,971.35
2018-09-03T01:44:55.974Z,971.30
2018-09-03T01:45:56.062Z,971.28
2018-09-03T01:46:56.074Z,971.24
2018-09-03T01:47:56.121Z,971.24
2018-09-03T01:48:57.273Z,971.26
2018-09-03T01:49:56.220Z,971.26
2018-09-03T01:50:56.304Z,971.26
2018-09-03T01:51:56.335Z,971.23
2018-09-03T01:52:56.372Z,971.20
2018-09-03T01:53:56.415Z,971.25
2018-09-03T01:54:56.467Z,971.26
2018-09-03T01:55:56.542Z,971.26
2018-09-03T01:56:57.276Z,971.27
2018-09-03T01:57:56.607Z,971.28
2018-09-03T01:58:56.669Z,971.28
2018-09-03T01:59:56.827Z,971.30
2018-09-03T02:00:56.776Z,971.26
2018-09-03T02:01:56.831Z,971.27
2018-09-03T02:02:56.848Z,971.27
2018-09-03T02:03:56.920Z,971.23
2018-09-03T02:04:56.948Z,971.25
2018-09-03T02:05:56.997Z,971.20
2018-09-03T02:06:57.175Z,971.26
2018-09-03T02:07:57.095Z,971.26
2018-09-03T02:08:57.146Z,971.26
2018-09-03T02:09:57.191Z,971.26
2018-09-03T02:10:57.240Z,971.28
2018-09-03T02:11:57.333Z,971.25
2018-09-03T02:12:57.338Z,971.23
2018-09-03T02:13:57.387Z,971.22
2018-09-03T02:14:58.286Z,971.16
2018-09-03T02:15:57.484Z,971.11
2018-09-03T02:16:57.553Z,971.09
2018-09-03T02:17:57.580Z,971.05
2018-09-03T02:18:58.279Z,971.03
2018-09-03T02:19:57.699Z,970.98
2018-09-03T02:20:57.727Z,970.98
2018-09-03T02:21:57.784Z,970.93
2018-09-03T02:22:57.823Z,970.90
2018-09-03T02:23:57.873Z,970.88
2018-09-03T02:24:57.948Z,970.87
2018-09-03T02:25:57.985Z,970.88
2018-09-03T02:26:58.020Z,970.84
2018-09-03T02:27:58.118Z,970.85
2018-09-03T02:28:58.113Z,970.82
2018-09-03T02:29:58.213Z,970.83
2018-09-03T02:30:58.222Z,970.80
2018-09-03T02:31:58.264Z,970.82
2018-09-03T02:32:58.317Z,970.78
2018-09-03T02:33:58.359Z,970.78
2018-09-03T02:34:58.426Z,970.79
2018-09-03T02:35:58.456Z,970.73
2018-09-03T02:36:58.501Z,970.76
2018-09-03T02:37:58.554Z,970.75
2018-09-03T02:38:58.603Z,970.75
2018-09-03T02:39:58.669Z,970.72
2018-09-03T02:40:58.696Z,970.69
2018-09-03T02:41:58.744Z,970.72
2018-09-03T02:42:58.796Z,970.67
2018-09-03T02:43:58.914Z,970.67
2018-09-03T02:44:58.915Z,970.68
2018-09-03T02:45:58.967Z,970.64
2018-09-03T02:46:58.988Z,970.67
2018-09-03T02:47:59.046Z,970.67
2018-09-03T02:48:59.083Z,970.65
2018-09-03T02:49:59.162Z,970.68
2018-09-03T02:50:59.262Z,970.64
2018-09-03T02:51:59.254Z,970.68
2018-09-03T02:52:59.279Z,970.72
2018-09-03T02:53:59.326Z,970.67
2018-09-03T02:54:59.393Z,970.67
2018-09-03T02:55:59.428Z,970.66
2018-09-03T02:56:59.499Z,970.66
2018-09-03T02:57:59.550Z,970.64
2018-09-03T02:58:59.566Z,970.63
2018-09-03T02:59:59.619Z,970.66
2018-09-03T03:00:59.684Z,970.59
2018-09-03T03:01:59.735Z,970.63
2018-09-03T03:02:59.757Z,970.66
2018-09-03T03:03:59.805Z,970.68
2018-09-03T03:04:59.857Z,970.66
2018-09-03T03:05:59.905Z,970.64
2018-09-03T03:06:59.974Z,970.64
2018-09-03T03:08:00.013Z,970.61
2018-09-03T03:09:00.054Z,970.60
2018-09-03T03:10:00.101Z,970.59
2018-09-03T03:11:00.153Z,970.59
2018-09-03T03:12:00.272Z,970.58
2018-09-03T03:13:00.245Z,970.59
2018-09-03T03:14:00.300Z,970.58
2018-09-03T03:15:00.368Z,970.58
2018-09-03T03:16:00.390Z,970.60
2018-09-03T03:17:00.463Z,970.62
2018-09-03T03:18:00.487Z,970.61
2018-09-03T03:19:00.533Z,970.61
2018-09-03T03:20:00.589Z,970.59
2018-09-03T03:21:00.629Z,970.57
2018-09-03T03:22:00.704Z,970.55
2018-09-03T03:23:00.749Z,970.53
2018-09-03T03:24:00.779Z,970.55
2018-09-03T03:25:00.825Z,970.51
2018-09-03T03:26:00.877Z,970.57
2018-09-03T03:27:00.924Z,970.56
2018-09-03T03:28:00.986Z,970.55
2018-09-03T03:29:01.018Z,970.60
2018-09-03T03:30:01.067Z,970.60
2018-09-03T03:31:01.141Z,970.58
2018-09-03T03:32:01.182Z,970.59
2018-09-03T03:33:01.237Z,970.60
2018-09-03T03:34:01.297Z,970.56
2018-09-03T03:35:01.306Z,970.56
2018-09-03T03:36:01.359Z,970.52
2018-09-03T03:37:01.405Z,970.47
2018-09-03T03:38:01.461Z,970.49
2018-09-03T03:39:01.521Z,970.49
2018-09-03T03:40:01.551Z,970.48
2018-09-03T03:41:01.595Z,970.50
2018-09-03T03:42:01.649Z,970.51
2018-09-03T03:43:01.719Z,970.50
2018-09-03T03:44:01.744Z,970.49
2018-09-03T03:45:02.291Z,970.52
2018-09-03T03:46:02.124Z,970.51
2018-09-03T03:47:01.888Z,970.51
2018-09-03T03:48:01.938Z,970.49
2018-09-03T03:49:01.989Z,970.50
2018-09-03T03:50:02.056Z,970.48
2018-09-03T03:51:02.079Z,970.52
2018-09-03T03:52:03.105Z,970.51
2018-09-03T03:53:02.182Z,970.50
2018-09-03T03:54:02.283Z,970.52
2018-09-03T03:55:02.363Z,970.48
2018-09-03T03:56:02.368Z,970.50
2018-09-03T03:57:02.374Z,970.49
2018-09-03T03:58:02.424Z,970.51
2018-09-03T03:59:02.495Z,970.50
2018-09-03T04:00:02.512Z,970.52
2018-09-03T04:01:02.564Z,970.58
2018-09-03T04:02:02.614Z,970.57
2018-09-03T04:03:02.661Z,970.55
2018-09-03T04:04:02.761Z,970.57
2018-09-03T04:05:02.762Z,970.55
2018-09-03T04:06:02.843Z,970.52
2018-09-03T04:07:03.292Z,970.54
2018-09-03T04:08:02.902Z,970.56
2018-09-03T04:09:02.951Z,970.52
2018-09-03T04:10:02.998Z,970.53
2018-09-03T04:11:03.074Z,970.52
2018-09-03T04:12:03.164Z,970.52
2018-09-03T04:13:03.146Z,970.52
2018-09-03T04:14:03.202Z,970.54
2018-09-03T04:15:03.242Z,970.49
2018-09-03T04:16:03.321Z,970.49
2018-09-03T04:17:03.358Z,970.46
2018-09-03T04:18:03.831Z,970.48
2018-09-03T04:19:03.445Z,970.49
2018-09-03T04:20:04.296Z,970.45
2018-09-03T04:21:03.550Z,970.46
2018-09-03T04:22:03.584Z,970.45
2018-09-03T04:23:03.671Z,970.45
2018-09-03T04:24:03.684Z,970.43
2018-09-03T04:25:03.743Z,970.41
2018-09-03T04:26:03.812Z,970.41
2018-09-03T04:27:03.841Z,970.40
2018-09-03T04:28:03.871Z,970.41
2018-09-03T04:29:03.924Z,970.44
2018-09-03T04:30:03.993Z,970.46
2018-09-03T04:31:04.018Z,970.43
2018-09-03T04:32:04.097Z,970.46
2018-09-03T04:33:04.125Z,970.50
2018-09-03T04:34:04.174Z,970.45
2018-09-03T04:35:04.800Z,970.46
2018-09-03T04:36:04.286Z,970.52
2018-09-03T04:37:04.310Z,970.51
2018-09-03T04:38:05.102Z,970.50
2018-09-03T04:39:04.425Z,970.54
2018-09-03T04:40:05.303Z,970.54
2018-09-03T04:41:04.507Z,970.54
2018-09-03T04:42:04.565Z,970.53
2018-09-03T04:43:04.608Z,970.53
2018-09-03T04:44:04.683Z,970.53
2018-09-03T04:45:04.700Z,970.53
2018-09-03T04:46:04.755Z,970.52
2018-09-03T04:47:04.800Z,970.49
2018-09-03T04:48:04.850Z,970.53
2018-09-03T04:49:04.928Z,970.51
2018-09-03T04:50:04.948Z,970.52
2018-09-03T04:51:04.989Z,970.53
2018-09-03T04:52:05.123Z,970.52
2018-09-03T04:53:05.108Z,970.49
2018-09-03T04:54:05.137Z,970.51
2018-09-03T04:55:05.199Z,970.48
2018-09-03T04:56:05.242Z,970.48
2018-09-03T04:57:05.285Z,970.48
2018-09-03T04:58:05.354Z,970.47
2018-09-03T04:59:05.381Z,970.51
2018-09-03T05:00:05.431Z,970.51
2018-09-03T05:01:05.481Z,970.51
2018-09-03T05:02:05.529Z,970.49
2018-09-03T05:03:05.594Z,970.49
2018-09-03T05:04:05.654Z,970.50
2018-09-03T05:05:06.639Z,970.50
2018-09-03T05:06:05.807Z,970.47
2018-09-03T05:07:05.772Z,970.49
2018-09-03T05:08:05.825Z,970.50
2018-09-03T05:09:05.942Z,970.53
2018-09-03T05:10:05.919Z,970.54
2018-09-03T05:11:05.986Z,970.56
2018-09-03T05:12:06.018Z,970.60
2018-09-03T05:13:06.138Z,970.56
2018-09-03T05:14:06.804Z,970.63
2018-09-03T05:15:06.182Z,970.66
2018-09-03T05:16:06.217Z,970.65
2018-09-03T05:17:06.279Z,970.61
2018-09-03T05:18:06.312Z,970.61
2018-09-03T05:19:06.359Z,970.59
2018-09-03T05:20:06.418Z,970.59
2018-09-03T05:21:06.463Z,970.58
2018-09-03T05:22:07.307Z,970.60
2018-09-03T05:23:06.559Z,970.60
2018-09-03T05:24:06.606Z,970.61
2018-09-03T05:25:06.661Z,970.60
2018-09-03T05:26:07.331Z,970.58
2018-09-03T05:27:06.785Z,970.56
2018-09-03T05:28:06.800Z,970.55
2018-09-03T05:29:06.852Z,970.54
2018-09-03T05:30:06.896Z,970.54
2018-09-03T05:31:07.021Z,970.56
2018-09-03T05:32:07.012Z,970.58
2018-09-03T05:33:07.046Z,970.54
2018-09-03T05:34:07.097Z,970.58
2018-09-03T05:35:07.145Z,970.56
2018-09-03T05:36:07.234Z,970.57
2018-09-03T05:37:07.828Z,970.54
2018-09-03T05:38:07.293Z,970.53
2018-09-03T05:39:07.337Z,970.53
2018-09-03T05:40:07.397Z,970.48
2018-09-03T05:41:07.475Z,970.50
2018-09-03T05:42:07.487Z,970.47
2018-09-03T05:43:07.618Z,970.52
2018-09-03T05:44:08.312Z,970.50
2018-09-03T05:45:07.632Z,970.48
2018-09-03T05:46:07.712Z,970.50
2018-09-03T05:47:07.771Z,970.52
2018-09-03T05:48:07.788Z,970.47
2018-09-03T05:49:07.849Z,970.51
2018-09-03T05:50:07.937Z,970.48
2018-09-03T05:51:07.949Z,970.48
2018-09-03T05:52:07.981Z,970.51
2018-09-03T05:53:08.026Z,970.50
2018-09-03T05:54:08.812Z,970.50
2018-09-03T05:55:08.139Z,970.48
2018-09-03T05:56:08.202Z,970.47
2018-09-03T05:57:08.821Z,970.49
2018-09-03T05:58:08.272Z,970.47
2018-09-03T05:59:08.354Z,970.47
2018-09-03T06:00:08.374Z,970.48
2018-09-03T06:01:08.422Z,970.44
2018-09-03T06:02:08.522Z,970.46
2018-09-03T06:03:08.517Z,970.49
2018-09-03T06:04:08.595Z,970.49
2018-09-03T06:05:08.622Z,970.52
2018-09-03T06:06:09.314Z,970.51
2018-09-03T06:07:08.744Z,970.51
2018-09-03T06:08:08.770Z,970.52
2018-09-03T06:09:08.895Z,970.55
2018-09-03T06:10:08.873Z,970.57
2018-09-03T06:11:08.935Z,970.57
2018-09-03T06:12:09.833Z,970.59
2018-09-03T06:13:09.012Z,970.63
2018-09-03T06:14:09.062Z,970.62
2018-09-03T06:15:09.113Z,970.64
2018-09-03T06:16:09.194Z,970.60
2018-09-03T06:17:09.215Z,970.61
2018-09-03T06:18:09.261Z,970.65
2018-09-03T06:19:09.817Z,970.64
2018-09-03T06:20:09.357Z,970.61
2018-09-03T06:21:09.433Z,970.61
2018-09-03T06:22:09.477Z,970.62
2018-09-03T06:23:09.630Z,970.57
2018-09-03T06:24:09.557Z,970.59
2018-09-03T06:25:09.603Z,970.62
2018-09-03T06:26:09.674Z,970.59
2018-09-03T06:27:09.703Z,970.57
2018-09-03T06:28:09.763Z,970.59
2018-09-03T06:29:09.805Z,970.59
2018-09-03T06:30:09.968Z,970.57
2018-09-03T06:31:09.928Z,970.62
2018-09-03T06:32:09.953Z,970.59
2018-09-03T06:33:10.031Z,970.61
2018-09-03T06:34:10.076Z,970.60
2018-09-03T06:35:10.107Z,970.59
2018-09-03T06:36:10.154Z,970.59
2018-09-03T06:37:10.199Z,970.60
2018-09-03T06:38:10.290Z,970.60
2018-09-03T06:39:10.675Z,970.59
2018-09-03T06:40:10.359Z,970.62
2018-09-03T06:41:10.417Z,970.63
2018-09-03T06:42:10.450Z,970.61
2018-09-03T06:43:10.495Z,970.61
2018-09-03T06:44:12.323Z,970.59
2018-09-03T06:45:10.598Z,970.59
2018-09-03T06:46:11.666Z,970.61
2018-09-03T06:47:11.346Z,970.62
2018-09-03T06:48:10.747Z,970.58
2018-09-03T06:49:10.821Z,970.58
2018-09-03T06:50:10.851Z,970.56
2018-09-03T06:51:10.894Z,970.57
2018-09-03T06:52:10.954Z,970.62
2018-09-03T06:53:11.029Z,970.59
2018-09-03T06:54:11.069Z,970.63
2018-09-03T06:55:11.826Z,970.67
2018-09-03T06:56:11.149Z,970.65
2018-09-03T06:57:11.200Z,970.67
2018-09-03T06:58:11.243Z,970.65
2018-09-03T06:59:11.325Z,970.70
2018-09-03T07:00:11.352Z,970.67
2018-09-03T07:01:11.404Z,970.64
2018-09-03T07:02:12.327Z,970.69
2018-09-03T07:03:11.495Z,970.63
2018-09-03T07:04:11.565Z,970.66
2018-09-03T07:05:11.670Z,970.66
2018-09-03T07:06:11.649Z,970.67
2018-09-03T07:07:11.699Z,970.69
2018-09-03T07:08:11.751Z,970.66
2018-09-03T07:09:11.798Z,970.67
2018-09-03T07:10:11.874Z,970.67
2018-09-03T07:11:11.917Z,970.63
2018-09-03T07:12:11.946Z,970.68
2018-09-03T07:13:12.005Z,970.62
2018-09-03T07:14:12.049Z,970.66
2018-09-03T07:15:12.098Z,970.61
2018-09-03T07:16:12.163Z,970.64
2018-09-03T07:17:12.205Z,970.65
2018-09-03T07:18:12.253Z,970.70
2018-09-03T07:19:12.836Z,970.64
2018-09-03T07:20:12.354Z,970.68
2018-09-03T07:21:12.420Z,970.66
2018-09-03T07:22:12.446Z,970.66
2018-09-03T07:23:12.497Z,970.69
2018-09-03T07:24:12.554Z,970.67
2018-09-03T07:25:12.609Z,970.64
2018-09-03T07:26:12.712Z,970.68
2018-09-03T07:27:12.703Z,970.68
2018-09-03T07:28:12.751Z,970.66
2018-09-03T07:29:12.799Z,970.63
2018-09-03T07:30:12.859Z,970.63
2018-09-03T07:31:12.938Z,970.67
2018-09-03T07:32:12.944Z,970.64
2018-09-03T07:33:13.055Z,970.64
2018-09-03T07:34:13.049Z,970.66
2018-09-03T07:35:13.915Z,970.68
2018-09-03T07:36:13.196Z,970.68
2018-09-03T07:37:13.198Z,970.71
2018-09-03T07:38:13.244Z,970.73
2018-09-03T07:39:13.297Z,970.72
2018-09-03T07:40:13.442Z,970.73
2018-09-03T07:41:13.419Z,970.76
2018-09-03T07:42:13.457Z,970.75
2018-09-03T07:43:13.495Z,970.76
2018-09-03T07:44:13.576Z,970.79
2018-09-03T07:45:13.598Z,970.76
2018-09-03T07:46:13.676Z,970.78
2018-09-03T07:47:13.749Z,970.77
2018-09-03T07:48:13.748Z,970.76
2018-09-03T07:49:13.802Z,970.76
2018-09-03T07:50:13.867Z,970.75
2018-09-03T07:51:13.895Z,970.78
2018-09-03T07:52:13.949Z,970.75
2018-09-03T07:53:14.006Z,970.70
2018-09-03T07:54:14.072Z,970.77
2018-09-03T07:55:14.846Z,970.73
2018-09-03T07:56:14.146Z,970.76
2018-09-03T07:57:14.198Z,970.72
2018-09-03T07:58:14.256Z,970.76
2018-09-03T07:59:14.332Z,970.75
2018-09-03T08:00:14.347Z,970.76
2018-09-03T08:01:14.513Z,970.72
2018-09-03T08:02:14.469Z,970.77
2018-09-03T08:03:14.499Z,970.72
2018-09-03T08:04:14.556Z,970.77
2018-09-03T08:05:14.599Z,970.78
2018-09-03T08:06:14.655Z,970.79
2018-09-03T08:07:14.782Z,970.75
2018-09-03T08:08:14.748Z,970.78
2018-09-03T08:09:14.801Z,970.79
2018-09-03T08:10:14.849Z,970.78
2018-09-03T08:11:14.908Z,970.80
2018-09-03T08:12:14.974Z,970.82
2018-09-03T08:13:15.027Z,970.83
2018-09-03T08:14:15.061Z,970.82
2018-09-03T08:15:15.105Z,970.87
2018-09-03T08:16:15.155Z,970.87
2018-09-03T08:17:15.241Z,970.85
2018-09-03T08:18:15.280Z,970.82
2018-09-03T08:19:15.309Z,970.82
2018-09-03T08:20:15.355Z,970.84
2018-09-03T08:21:15.431Z,970.86
2018-09-03T08:22:15.454Z,970.85
2018-09-03T08:23:15.532Z,970.85
2018-09-03T08:24:16.347Z,970.82
2018-09-03T08:25:15.607Z,970.82
2018-09-03T08:26:15.676Z,970.80
2018-09-03T08:27:15.706Z,970.85
2018-09-03T08:28:15.788Z,970.80
2018-09-03T08:29:15.812Z,970.80
2018-09-03T08:30:15.915Z,970.83
2018-09-03T08:31:15.911Z,970.84
2018-09-03T08:32:15.965Z,970.86
2018-09-03T08:33:16.871Z,970.86
2018-09-03T08:34:16.068Z,970.84
2018-09-03T08:35:16.126Z,970.80
2018-09-03T08:36:16.208Z,970.83
2018-09-03T08:37:16.216Z,970.78
2018-09-03T08:38:16.304Z,970.83
2018-09-03T08:39:16.317Z,970.82
2018-09-03T08:40:16.372Z,970.81
2018-09-03T08:41:16.417Z,970.83
2018-09-03T08:42:16.478Z,970.84
2018-09-03T08:43:16.598Z,970.81
2018-09-03T08:44:16.576Z,970.79
2018-09-03T08:45:16.641Z,970.84
2018-09-03T08:46:16.678Z,970.84
2018-09-03T08:47:16.730Z,970.82
2018-09-03T08:48:19.855Z,970.83
2018-09-03T08:49:16.847Z,970.80
2018-09-03T08:50:16.893Z,970.79
2018-09-03T08:51:16.956Z,970.80
2018-09-03T08:52:16.979Z,970.77
2018-09-03T08:53:17.031Z,970.80
2018-09-03T08:54:17.114Z,970.85
2018-09-03T08:55:17.137Z,970.84
2018-09-03T08:56:17.200Z,970.83
2018-09-03T08:57:17.276Z,970.81
2018-09-03T08:58:17.300Z,970.82
2018-09-03T08:59:17.355Z,970.81
2018-09-03T09:00:18.173Z,970.82
2018-09-03T09:01:17.442Z,970.85
2018-09-03T09:02:17.491Z,970.79
2018-09-03T09:03:18.360Z,970.84
2018-09-03T09:04:17.599Z,970.80
2018-09-03T09:05:17.664Z,970.79
2018-09-03T09:06:17.702Z,970.82
2018-09-03T09:07:17.746Z,970.77
2018-09-03T09:08:17.825Z,970.76
2018-09-03T09:09:17.847Z,970.75
2018-09-03T09:10:17.899Z,970.71
2018-09-03T09:11:17.956Z,970.74
2018-09-03T09:12:17.999Z,970.71
2018-09-03T09:13:18.077Z,970.71
2018-09-03T09:14:18.864Z,970.70
2018-09-03T09:15:18.164Z,970.69
2018-09-03T09:16:18.211Z,970.66
2018-09-03T09:17:18.263Z,970.72
2018-09-03T09:18:18.308Z,970.71
2018-09-03T09:19:18.403Z,970.68
2018-09-03T09:20:18.411Z,970.68
2018-09-03T09:21:18.463Z,970.69
2018-09-03T09:22:18.513Z,970.67
2018-09-03T09:23:18.718Z,970.69
2018-09-03T09:24:18.652Z,970.67
2018-09-03T09:25:19.367Z,970.65
2018-09-03T09:26:18.720Z,970.67
2018-09-03T09:27:18.767Z,970.65
2018-09-03T09:28:18.831Z,970.67
2018-09-03T09:29:18.893Z,970.63
2018-09-03T09:30:19.042Z,970.64
2018-09-03T09:31:18.979Z,970.63
2018-09-03T09:32:19.023Z,970.63
2018-09-03T09:33:19.072Z,970.63
2018-09-03T09:34:19.145Z,970.62
2018-09-03T09:35:19.172Z,970.61
2018-09-03T09:36:19.869Z,970.65
2018-09-03T09:37:19.275Z,970.68
2018-09-03T09:38:19.327Z,970.67
2018-09-03T09:39:19.384Z,970.65
2018-09-03T09:40:19.429Z,970.65
2018-09-03T09:41:20.406Z,970.61
2018-09-03T09:42:19.538Z,970.65
2018-09-03T09:43:19.588Z,970.65
2018-09-03T09:44:19.646Z,970.62
2018-09-03T09:45:19.691Z,970.62
2018-09-03T09:46:19.753Z,970.63
2018-09-03T09:47:19.792Z,970.63
2018-09-03T09:48:19.846Z,970.63
2018-09-03T09:49:19.884Z,970.60
2018-09-03T09:50:19.936Z,970.58
2018-09-03T09:51:20.016Z,970.62
2018-09-03T09:52:20.047Z,970.61
2018-09-03T09:53:20.092Z,970.56
2018-09-03T09:54:20.884Z,970.61
2018-09-03T09:55:20.196Z,970.61
2018-09-03T09:56:20.265Z,970.56
2018-09-03T09:57:20.299Z,970.56
2018-09-03T09:58:20.344Z,970.56
2018-09-03T09:59:20.401Z,970.49
2018-09-03T10:00:20.444Z,970.54
2018-09-03T10:01:20.523Z,970.52
2018-09-03T10:02:20.547Z,970.50
2018-09-03T10:03:20.605Z,970.54
2018-09-03T10:04:20.714Z,970.56
2018-09-03T10:05:20.706Z,970.55
2018-09-03T10:06:20.791Z,970.55
2018-09-03T10:07:20.801Z,970.55
2018-09-03T10:08:20.852Z,970.56
2018-09-03T10:09:21.879Z,970.51
2018-09-03T10:10:20.955Z,970.54
2018-09-03T10:11:21.029Z,970.51
2018-09-03T10:12:21.060Z,970.55
2018-09-03T10:13:21.136Z,970.54
2018-09-03T10:14:21.163Z,970.56
2018-09-03T10:15:21.212Z,970.59
2018-09-03T10:16:21.263Z,970.55
2018-09-03T10:17:21.313Z,970.57
2018-09-03T10:18:21.389Z,970.56
2018-09-03T10:19:21.455Z,970.57
2018-09-03T10:20:21.470Z,970.56
2018-09-03T10:21:21.524Z,970.58
2018-09-03T10:22:21.572Z,970.54
2018-09-03T10:23:21.646Z,970.53
2018-09-03T10:24:21.690Z,970.53
2018-09-03T10:25:21.719Z,970.55
2018-09-03T10:26:21.854Z,970.53
2018-09-03T10:27:21.831Z,970.55
2018-09-03T10:28:21.881Z,970.56
2018-09-03T10:29:21.951Z,970.59
2018-09-03T10:30:21.975Z,970.58
2018-09-03T10:31:22.051Z,970.52
2018-09-03T10:32:22.080Z,970.48
2018-09-03T10:33:22.136Z,970.51
2018-09-03T10:34:22.217Z,970.54
2018-09-03T10:35:22.231Z,970.53
2018-09-03T10:36:22.288Z,970.52
2018-09-03T10:37:22.350Z,970.52
2018-09-03T10:38:22.392Z,970.55
2018-09-03T10:39:22.525Z,970.53
2018-09-03T10:40:22.518Z,970.51
2018-09-03T10:41:22.543Z,970.49
2018-09-03T10:42:22.607Z,970.53
2018-09-03T10:43:22.655Z,970.50
2018-09-03T10:44:22.693Z,970.50
2018-09-03T10:45:22.796Z,970.51
2018-09-03T10:46:23.417Z,970.56
2018-09-03T10:47:22.932Z,970.56
2018-09-03T10:48:23.112Z,970.54
2018-09-03T10:49:22.951Z,970.55
2018-09-03T10:50:23.026Z,970.56
2018-09-03T10:51:23.062Z,970.54
2018-09-03T10:52:23.102Z,970.57
2018-09-03T10:53:23.172Z,970.56
2018-09-03T10:54:23.208Z,970.57
2018-09-03T10:55:23.277Z,970.56
2018-09-03T10:56:23.324Z,970.54
2018-09-03T10:57:23.387Z,970.57
2018-09-03T10:58:23.414Z,970.55
2018-09-03T10:59:23.554Z,970.56
2018-09-03T11:00:23.539Z,970.54
2018-09-03T11:01:23.569Z,970.49
2018-09-03T11:02:23.643Z,970.51
2018-09-03T11:03:23.674Z,970.49
2018-09-03T11:04:23.725Z,970.48
2018-09-03T11:05:23.801Z,970.48
2018-09-03T11:06:23.880Z,970.46
2018-09-03T11:07:23.917Z,970.49
2018-09-03T11:08:23.939Z,970.47
2018-09-03T11:09:23.983Z,970.50
2018-09-03T11:10:24.035Z,970.47
2018-09-03T11:11:24.901Z,970.46
2018-09-03T11:12:24.159Z,970.48
2018-09-03T11:13:24.257Z,970.46
2018-09-03T11:14:24.334Z,970.46
2018-09-03T11:15:24.299Z,970.49
2018-09-03T11:16:24.363Z,970.53
2018-09-03T11:17:24.427Z,970.49
2018-09-03T11:18:24.476Z,970.47
2018-09-03T11:19:24.506Z,970.50
2018-09-03T11:20:24.566Z,970.50
2018-09-03T11:21:24.735Z,970.50
2018-09-03T11:22:24.689Z,970.51
2018-09-03T11:23:24.733Z,970.49
2018-09-03T11:24:24.759Z,970.50
2018-09-03T11:25:24.814Z,970.47
2018-09-03T11:26:24.866Z,970.52
2018-09-03T11:27:24.918Z,970.51
2018-09-03T11:28:25.006Z,970.48
2018-09-03T11:29:25.030Z,970.48
2018-09-03T11:30:25.088Z,970.51
2018-09-03T11:31:25.128Z,970.48
2018-09-03T11:32:25.177Z,970.45
2018-09-03T11:33:25.267Z,970.45
2018-09-03T11:34:25.332Z,970.46
2018-09-03T11:35:25.345Z,970.44
2018-09-03T11:36:25.391Z,970.42
2018-09-03T11:37:25.440Z,970.44
2018-09-03T11:38:25.488Z,970.41
2018-09-03T11:39:25.569Z,970.45
2018-09-03T11:40:25.596Z,970.47
2018-09-03T11:41:25.650Z,970.50
2018-09-03T11:42:25.749Z,970.46
2018-09-03T11:43:25.782Z,970.47
2018-09-03T11:44:25.804Z,970.47
2018-09-03T11:45:25.861Z,970.45
2018-09-03T11:46:25.911Z,970.47
2018-09-03T11:47:25.972Z,970.46
2018-09-03T11:48:26.042Z,970.48
2018-09-03T11:49:26.065Z,970.44
2018-09-03T11:50:26.156Z,970.45
2018-09-03T11:51:26.209Z,970.45
2018-09-03T11:52:26.224Z,970.44
2018-09-03T11:53:26.284Z,970.44
2018-09-03T11:54:26.391Z,970.42
2018-09-03T11:55:26.408Z,970.44
2018-09-03T11:56:26.446Z,970.45
2018-09-03T11:57:26.488Z,970.46
2018-09-03T11:58:26.565Z,970.48
2018-09-03T11:59:27.453Z,970.47
2018-09-03T12:00:27.495Z,970.47
2018-09-03T12:01:26.715Z,970.48
2018-09-03T12:02:26.763Z,970.46
2018-09-03T12:03:26.815Z,970.48
2018-09-03T12:04:26.856Z,970.47
2018-09-03T12:05:26.928Z,970.46
2018-09-03T12:06:26.962Z,970.50
2018-09-03T12:07:27.023Z,970.44
2018-09-03T12:08:27.078Z,970.45
2018-09-03T12:09:27.129Z,970.46
2018-09-03T12:10:27.212Z,970.48
2018-09-03T12:11:27.222Z,970.47
2018-09-03T12:12:27.275Z,970.49
2018-09-03T12:13:27.923Z,970.51
2018-09-03T12:14:27.395Z,970.48
2018-09-03T12:15:27.459Z,970.48
2018-09-03T12:16:27.534Z,970.47
2018-09-03T12:17:27.545Z,970.46
2018-09-03T12:18:27.598Z,970.48
2018-09-03T12:19:27.646Z,970.40
2018-09-03T12:20:27.700Z,970.39
2018-09-03T12:21:27.780Z,970.36
2018-09-03T12:22:27.839Z,970.37
2018-09-03T12:23:27.857Z,970.39
2018-09-03T12:24:28.427Z,970.35
2018-09-03T12:25:27.965Z,970.38
2018-09-03T12:26:28.024Z,970.33
2018-09-03T12:27:28.144Z,970.35
2018-09-03T12:28:28.127Z,970.34
2018-09-03T12:29:28.190Z,970.30